Time;durP1;ratioP1;P1;durP2;ratioP2;P2;SDS_P1;SDS_P2;PMS_P1;PMS_P2;Temp;Humidity;BMP_temperature;BMP_pressure;BME280_temperature;BME280_humidity;BME280_pressure;Samples;Min_cycle;Max_cycle;Signal;HPM_P1;HPM_P2
2022/12/13 00:00:36;;;;;;;;;;;;;;;-3.24;85.50;98631.16;10333221;23;19923;-78
2022/12/13 00:04:37;;;;;;;;;;;;;;;-3.24;85.03;98627.75;10333047;23;19904;-79
2022/12/13 00:08:40;;;;;;;;;;;;;;;-3.27;84.58;98628.50;10332236;23;19924;-75
2022/12/13 00:12:41;;;;;;;;;;;;;;;-3.27;85.22;98632.72;10333236;23;19916;-75
2022/12/13 00:16:44;;;;;;;;;;;;;;;-3.29;84.94;98637.72;10332479;23;19920;-75
2022/12/13 00:20:45;;;;;;;;;;;;;;;-3.32;84.32;98627.47;10331862;23;19919;-77
2022/12/13 00:24:47;;;;;;;;;;;;;;;-3.35;84.16;98629.91;10332962;23;20000;-80
2022/12/13 00:28:50;;;;;;;;;;;;;;;-3.44;84.08;98612.63;10333147;23;19931;-76
2022/12/13 00:37:04;;;;;;;;;;;;;;;-3.51;84.46;98595.47;10225975;23;19935;-74
2022/12/13 00:41:10;;;;;;;;;;;;;;;-3.55;84.69;98590.22;10222868;23;20003;-73
2022/12/13 00:45:12;;;;;;;;;;;;;;;-3.60;84.14;98584.94;10192832;23;20263;-75
2022/12/13 00:49:14;;;;;;;;;;;;;;;-3.60;84.78;98587.47;10222470;23;19924;-73
2022/12/13 00:53:15;;;;;;;;;;;;;;;-3.60;84.75;98586.63;10222809;23;20007;-73
2022/12/13 00:57:16;;;;;;;;;;;;;;;-3.58;84.83;98590.09;10223071;23;20651;-74
2022/12/13 01:01:19;;;;;;;;;;;;;;;-3.53;84.93;98596.22;10191083;23;19928;-74
2022/12/13 01:05:20;;;;;;;;;;;;;;;-3.51;84.09;98592.91;10225136;23;19938;-74
2022/12/13 01:09:41;;;;;;;;;;;;;;;-3.50;85.20;98593.78;10215611;23;19935;-74
2022/12/13 01:13:43;;;;;;;;;;;;;;;-3.49;84.38;98601.44;10213475;23;20015;-74
2022/12/13 01:17:46;;;;;;;;;;;;;;;-3.48;84.17;98597.25;10216919;23;20314;-73
2022/12/13 01:21:47;;;;;;;;;;;;;;;-3.51;84.55;98592.91;10199787;23;20011;-74
2022/12/13 01:25:49;;;;;;;;;;;;;;;-3.51;84.29;98581.91;10220504;23;20367;-74
2022/12/13 01:29:50;;;;;;;;;;;;;;;-3.53;84.93;98591.13;10170003;23;19924;-74
2022/12/13 01:33:52;;;;;;;;;;;;;;;-3.56;84.38;98591.88;10198298;23;20394;-73
2022/12/13 01:37:54;;;;;;;;;;;;;;;-3.55;84.26;98592.75;10197626;23;19924;-73
2022/12/13 01:42:01;;;;;;;;;;;;;;;-3.54;84.58;98587.75;10224264;23;19924;-74
2022/12/13 01:46:03;;;;;;;;;;;;;;;-3.55;84.97;98592.75;10218166;23;19960;-73
2022/12/13 01:50:07;;;;;;;;;;;;;;;-3.56;84.40;98591.03;10223303;23;19924;-74
2022/12/13 01:54:11;;;;;;;;;;;;;;;-3.56;84.27;98571.59;10197635;23;19970;-73
2022/12/13 01:58:21;;;;;;;;;;;;;;;-3.58;84.26;98573.22;10200533;23;20315;-74
2022/12/13 02:02:23;;;;;;;;;;;;;;;-3.58;84.87;98567.28;10189304;23;20357;-74
2022/12/13 02:06:24;;;;;;;;;;;;;;;-3.60;84.47;98567.19;10172955;23;19975;-75
2022/12/13 02:10:26;;;;;;;;;;;;;;;-3.60;84.08;98567.19;10197095;23;19947;-73
2022/12/13 02:14:27;;;;;;;;;;;;;;;-3.60;84.64;98571.41;10198346;23;19951;-74
2022/12/13 02:18:38;;;;;;;;;;;;;;;-3.63;84.42;98559.47;10215222;23;20343;-73
2022/12/13 02:22:39;;;;;;;;;;;;;;;-3.60;84.29;98554.50;10198095;23;20314;-73
2022/12/13 02:26:40;;;;;;;;;;;;;;;-3.62;84.27;98552.72;10197443;23;20011;-74
2022/12/13 02:30:45;;;;;;;;;;;;;;;-3.63;84.32;98558.59;10213894;23;20006;-73
2022/12/13 02:34:55;;;;;;;;;;;;;;;-3.65;84.13;98556.00;10222908;23;19934;-74
2022/12/13 02:39:00;;;;;;;;;;;;;;;-3.66;84.03;98556.81;10223030;23;19928;-73
2022/12/13 02:43:07;;;;;;;;;;;;;;;-3.69;83.64;98551.63;10195691;23;19920;-73
2022/12/13 02:47:14;;;;;;;;;;;;;;;-3.70;83.91;98553.31;10187396;23;19974;-75
2022/12/13 02:51:23;;;;;;;;;;;;;;;-3.69;83.40;98549.09;10199141;23;19924;-73
2022/12/13 02:55:25;;;;;;;;;;;;;;;-3.68;83.53;98539.00;10222613;23;19923;-74
2022/12/13 02:59:30;;;;;;;;;;;;;;;-3.72;83.39;98538.84;10197001;23;19924;-74
2022/12/13 03:03:41;;;;;;;;;;;;;;;-3.73;83.30;98529.50;10217073;23;19948;-73
2022/12/13 03:07:45;;;;;;;;;;;;;;;-3.76;83.25;98527.72;10227112;23;20204;-73
2022/12/13 03:16:36;;;;;;;;;;;;;;;-3.76;82.73;98519.25;10216733;23;19952;-73
2022/12/13 03:20:37;;;;;;;;;;;;;;;-3.78;82.86;98523.38;10199980;23;19986;-74
2022/12/13 03:24:39;;;;;;;;;;;;;;;-3.80;82.77;98527.53;10201362;23;19966;-73
2022/12/13 03:28:40;;;;;;;;;;;;;;;-3.82;82.74;98519.88;10201704;23;19964;-73
2022/12/13 03:32:42;;;;;;;;;;;;;;;-3.84;82.59;98523.16;10214978;23;20275;-73
2022/12/13 03:36:43;;;;;;;;;;;;;;;-3.88;82.54;98522.19;10196415;23;19978;-73
2022/12/13 03:40:44;;;;;;;;;;;;;;;-3.93;82.24;98528.75;10170654;23;19928;-73
2022/12/13 03:44:46;;;;;;;;;;;;;;;-3.96;82.69;98521.00;10223222;23;19963;-74
2022/12/13 03:48:47;;;;;;;;;;;;;;;-3.93;82.49;98513.53;10213673;23;20805;-73
2022/12/13 03:52:50;;;;;;;;;;;;;;;-3.96;82.25;98521.88;10224216;23;19934;-73
2022/12/13 03:56:52;;;;;;;;;;;;;;;-3.97;81.94;98515.06;10228830;23;20007;-73
2022/12/13 04:00:53;;;;;;;;;;;;;;;-3.95;82.12;98522.72;10221407;23;20067;-74
2022/12/13 04:04:54;;;;;;;;;;;;;;;-3.93;82.13;98518.63;10200973;23;19924;-73
2022/12/13 04:09:01;;;;;;;;;;;;;;;-3.90;81.62;98517.88;10171984;23;19932;-76
2022/12/13 04:17:22;;;;;;;;;;;;;;;-3.90;82.02;98510.25;10217142;23;20327;-74
2022/12/13 04:21:24;;;;;;;;;;;;;;;-3.93;82.03;98511.00;10221905;23;19924;-73
2022/12/13 04:25:25;;;;;;;;;;;;;;;-3.95;82.09;98494.84;10174328;23;19966;-73
2022/12/13 04:29:27;;;;;;;;;;;;;;;-3.96;82.19;98493.97;10224032;23;20342;-74
2022/12/13 04:33:35;;;;;;;;;;;;;;;-3.98;82.02;98487.13;10246888;23;19924;-76
2022/12/13 04:37:36;;;;;;;;;;;;;;;-3.99;82.22;98491.34;10282467;23;19932;-74
2022/12/13 04:41:38;;;;;;;;;;;;;;;-3.98;81.95;98503.19;10283369;23;19920;-75
2022/12/13 04:45:39;;;;;;;;;;;;;;;-3.99;82.21;98498.06;10282268;23;19916;-74
2022/12/13 04:49:41;;;;;;;;;;;;;;;-4.00;81.75;98498.88;10282399;23;19920;-76
2022/12/13 04:53:43;;;;;;;;;;;;;;;-4.02;82.07;98501.38;10282567;23;19968;-74
2022/12/13 04:57:44;;;;;;;;;;;;;;;-4.01;81.85;98498.03;10283200;23;19920;-75
2022/12/13 05:01:46;;;;;;;;;;;;;;;-4.02;81.51;98501.38;10281905;23;19920;-74
2022/12/13 05:05:49;;;;;;;;;;;;;;;-4.02;81.86;98503.03;10256376;23;19921;-75
2022/12/13 05:09:51;;;;;;;;;;;;;;;-4.01;82.02;98502.22;10281872;23;20322;-75
2022/12/13 05:13:52;;;;;;;;;;;;;;;-4.03;82.19;98497.09;10281276;23;19930;-75
2022/12/13 05:17:53;;;;;;;;;;;;;;;-4.04;81.96;98489.44;10280767;23;19948;-77
2022/12/13 05:21:55;;;;;;;;;;;;;;;-4.04;82.14;98497.91;10298353;23;20280;-75
2022/12/13 05:26:02;;;;;;;;;;;;;;;-4.03;82.28;98502.19;10281556;23;19960;-74
2022/12/13 05:30:03;;;;;;;;;;;;;;;-4.01;82.18;98502.22;10280226;23;19935;-74
2022/12/13 05:34:05;;;;;;;;;;;;;;;-4.02;82.38;98493.75;10223172;23;19929;-73
2022/12/13 05:38:07;;;;;;;;;;;;;;;-4.03;82.17;98486.09;10224591;23;19920;-74
2022/12/13 05:42:08;;;;;;;;;;;;;;;-4.04;82.17;98474.25;10226305;23;19924;-73
2022/12/13 05:46:11;;;;;;;;;;;;;;;-4.04;82.44;98475.09;10184157;23;19926;-76
2022/12/13 05:50:14;;;;;;;;;;;;;;;-4.04;82.31;98477.63;10281555;23;19920;-74
2022/12/13 05:54:15;;;;;;;;;;;;;;;-4.04;82.24;98476.78;10255956;23;19932;-75
2022/12/13 05:58:16;;;;;;;;;;;;;;;-4.06;82.16;98473.31;10281851;23;19920;-76
2022/12/13 06:02:23;;;;;;;;;;;;;;;-4.06;82.37;98483.47;10280532;23;19920;-75
2022/12/13 06:06:25;;;;;;;;;;;;;;;-4.07;81.92;98476.66;10281409;23;19940;-74
2022/12/13 06:10:27;;;;;;;;;;;;;;;-4.08;81.60;98478.34;10280783;23;19928;-77
2022/12/13 06:14:35;;;;;;;;;;;;;;;-4.10;81.95;98476.53;10281225;23;19935;-78
2022/12/13 06:18:37;;;;;;;;;;;;;;;-4.10;81.92;98486.69;10279754;23;19920;-75
2022/12/13 06:22:38;;;;;;;;;;;;;;;-4.12;81.89;98488.31;10281322;23;19921;-74
2022/12/13 06:26:39;;;;;;;;;;;;;;;-4.12;81.72;98488.31;10280945;23;19968;-75
2022/12/13 06:30:41;;;;;;;;;;;;;;;-4.11;82.06;98493.44;10270460;23;19991;-73
2022/12/13 06:34:43;;;;;;;;;;;;;;;-4.11;81.65;98482.44;10196474;23;19970;-74
2022/12/13 06:38:45;;;;;;;;;;;;;;;-4.11;81.57;98483.28;10173183;23;19978;-73
2022/12/13 06:42:46;;;;;;;;;;;;;;;-4.10;81.43;98489.22;10223108;23;20341;-75
2022/12/13 06:46:48;;;;;;;;;;;;;;;-4.10;81.42;98496.81;10242240;23;19947;-75
2022/12/13 06:50:49;;;;;;;;;;;;;;;-4.11;81.30;98498.50;10275428;23;19920;-78
2022/12/13 06:54:50;;;;;;;;;;;;;;;-4.11;81.15;98498.50;10279464;23;19916;-74
2022/12/13 06:59:00;;;;;;;;;;;;;;;-4.13;81.28;98500.13;10277880;23;19940;-74
2022/12/13 07:03:02;;;;;;;;;;;;;;;-4.14;81.24;98493.28;10280092;23;19920;-76
2022/12/13 07:07:04;;;;;;;;;;;;;;;-4.14;81.40;98498.34;10265941;23;19935;-74
2022/12/13 07:11:05;;;;;;;;;;;;;;;-4.14;81.33;98503.41;10243664;23;19928;-78
2022/12/13 07:15:07;;;;;;;;;;;;;;;-4.11;81.23;98511.16;10229189;23;19924;-77
2022/12/13 07:19:10;;;;;;;;;;;;;;;-4.11;81.38;98520.44;10261567;23;19928;-78
2022/12/13 07:23:24;;;;;;;;;;;;;;;-4.12;81.49;98521.25;10218520;23;19935;-72
2022/12/13 07:27:25;;;;;;;;;;;;;;;-4.12;81.52;98524.66;10219631;23;19928;-73
2022/12/13 07:31:27;;;;;;;;;;;;;;;-4.12;81.39;98522.13;10212354;23;19936;-75
2022/12/13 07:35:29;;;;;;;;;;;;;;;-4.12;81.16;98523.78;10202310;23;20317;-75
2022/12/13 07:39:31;;;;;;;;;;;;;;;-4.12;81.32;98526.31;10229523;23;19920;-73
2022/12/13 07:43:33;;;;;;;;;;;;;;;-4.10;81.28;98533.19;10191989;23;19992;-73
2022/12/13 07:47:34;;;;;;;;;;;;;;;-4.08;81.33;98535.75;10198178;23;20488;-72
2022/12/13 07:51:36;;;;;;;;;;;;;;;-4.07;81.17;98529.88;10198212;23;19928;-72
2022/12/13 07:55:38;;;;;;;;;;;;;;;-4.02;81.12;98521.66;10223393;23;20240;-73
2022/12/13 07:59:40;;;;;;;;;;;;;;;-4.00;81.19;98522.56;10173106;23;20015;-73
2022/12/13 08:03:41;;;;;;;;;;;;;;;-3.98;80.65;98513.34;10209521;23;19947;-74
2022/12/13 08:07:42;;;;;;;;;;;;;;;-3.90;80.74;98515.31;10251794;23;19931;-76
2022/12/13 08:11:44;;;;;;;;;;;;;;;-3.83;80.71;98517.28;10197020;23;19958;-77
2022/12/13 08:15:46;;;;;;;;;;;;;;;-3.77;80.44;98523.47;10229801;23;19929;-73
2022/12/13 08:19:47;;;;;;;;;;;;;;;-3.67;80.22;98527.19;10174023;23;19924;-72
2022/12/13 08:23:49;;;;;;;;;;;;;;;-3.55;79.96;98531.88;10198242;23;20304;-72
2022/12/13 08:27:50;;;;;;;;;;;;;;;-3.41;79.83;98538.28;10225644;23;20375;-74
2022/12/13 08:31:52;;;;;;;;;;;;;;;-3.30;79.64;98534.47;10197458;23;20545;-75
2022/12/13 08:35:53;;;;;;;;;;;;;;;-3.14;79.28;98529.16;10216386;23;19984;-72
2022/12/13 08:39:55;;;;;;;;;;;;;;;-3.00;78.17;98538.94;10197899;23;19934;-71
2022/12/13 08:43:56;;;;;;;;;;;;;;;-2.92;78.00;98535.81;10248260;23;19931;-72
2022/12/13 08:47:59;;;;;;;;;;;;;;;-2.79;77.50;98530.38;10250159;23;19924;-73
2022/12/13 08:52:00;;;;;;;;;;;;;;;-2.66;76.23;98526.56;10236875;23;19928;-73
2022/12/13 08:56:03;;;;;;;;;;;;;;;-2.58;75.76;98529.34;10238164;23;19924;-72
2022/12/13 09:00:05;;;;;;;;;;;;;;;-2.62;74.95;98530.06;10256072;23;19920;-73
2022/12/13 09:04:06;;;;;;;;;;;;;;;-2.60;75.20;98531.84;10265478;23;19924;-73
2022/12/13 09:08:08;;;;;;;;;;;;;;;-2.59;74.92;98533.56;10240749;23;19984;-73
2022/12/13 09:12:25;;;;;;;;;;;;;;;-2.57;75.84;98518.38;10204932;23;20005;-74
2022/12/13 09:16:35;;;;;;;;;;;;;;;-2.54;74.91;98521.00;10215241;23;19924;-73
2022/12/13 09:20:36;;;;;;;;;;;;;;;-2.51;74.21;98521.13;10171597;23;20433;-73
2022/12/13 09:24:42;;;;;;;;;;;;;;;-2.49;74.18;98530.53;10173823;23;19935;-73
2022/12/13 09:28:50;;;;;;;;;;;;;;;-2.45;74.86;98521.31;10198044;23;20444;-73
2022/12/13 09:32:51;;;;;;;;;;;;;;;-2.40;74.51;98522.34;10212793;23;19978;-73
2022/12/13 09:36:53;;;;;;;;;;;;;;;-2.34;74.79;98512.34;10172779;23;19924;-73
2022/12/13 09:41:25;;;;;;;;;;;;;;;-2.26;74.62;98517.69;10220762;23;19935;-73
2022/12/13 09:45:30;;;;;;;;;;;;;;;-2.22;73.12;98514.44;10206469;23;19943;-73
2022/12/13 09:49:34;;;;;;;;;;;;;;;-2.18;72.85;98509.47;10221074;23;19947;-73
2022/12/13 09:53:36;;;;;;;;;;;;;;;-2.13;72.94;98517.28;10220984;23;19924;-73
2022/12/13 09:57:38;;;;;;;;;;;;;;;-2.09;73.48;98516.56;10224421;23;20833;-73
2022/12/13 10:01:39;;;;;;;;;;;;;;;-1.98;72.72;98516.88;10175377;23;19924;-74
2022/12/13 10:05:50;;;;;;;;;;;;;;;-1.93;72.34;98518.75;10214612;23;19920;-74
2022/12/13 10:09:57;;;;;;;;;;;;;;;-1.88;73.17;98507.03;10211845;23;19964;-74
2022/12/13 10:14:08;;;;;;;;;;;;;;;-1.80;71.78;98496.22;10199390;23;19991;-74
2022/12/13 10:18:13;;;;;;;;;;;;;;;-1.80;71.06;98503.84;10217676;23;19924;-74
2022/12/13 10:22:15;;;;;;;;;;;;;;;-1.80;71.80;98509.78;10225279;23;20320;-74
2022/12/13 10:26:17;;;;;;;;;;;;;;;-1.76;71.06;98528.56;10199756;23;20319;-74
2022/12/13 10:30:26;;;;;;;;;;;;;;;-1.74;70.95;98522.72;10191837;23;19924;-74
2022/12/13 10:34:37;;;;;;;;;;;;;;;-1.65;70.67;98514.47;10199529;23;19986;-74
2022/12/13 10:38:41;;;;;;;;;;;;;;;-1.56;71.03;98507.97;10226901;23;19934;-74
2022/12/13 10:42:43;;;;;;;;;;;;;;;-1.52;71.10;98498.75;10201089;23;20007;-75
2022/12/13 10:47:01;;;;;;;;;;;;;;;-1.53;70.13;98486.84;10220505;23;20278;-74
2022/12/13 10:51:03;;;;;;;;;;;;;;;-1.50;70.40;98491.16;10199574;23;20003;-74
2022/12/13 10:55:06;;;;;;;;;;;;;;;-1.49;70.10;98487.78;10200620;23;20239;-74
2022/12/13 10:59:24;;;;;;;;;;;;;;;-1.43;70.33;98476.13;10179911;23;20380;-74
2022/12/13 11:03:31;;;;;;;;;;;;;;;-1.37;70.23;98473.72;10249622;23;19938;-75
2022/12/13 11:07:33;;;;;;;;;;;;;;;-1.29;69.81;98473.94;10257442;23;19904;-75
2022/12/13 11:11:34;;;;;;;;;;;;;;;-1.20;69.14;98469.09;10264713;23;19927;-75
2022/12/13 11:15:37;;;;;;;;;;;;;;;-1.18;69.10;98449.63;10218315;23;19985;-75
2022/12/13 11:19:42;;;;;;;;;;;;;;;-1.13;68.13;98445.50;10179147;23;19929;-75
2022/12/13 11:23:44;;;;;;;;;;;;;;;-1.11;68.63;98451.50;10204638;23;20523;-75
2022/12/13 11:27:46;;;;;;;;;;;;;;;-1.12;67.78;98448.91;10223711;23;20051;-76
2022/12/13 11:32:01;;;;;;;;;;;;;;;-1.07;67.74;98450.78;10218554;23;19924;-75
2022/12/13 11:36:11;;;;;;;;;;;;;;;-1.13;67.07;98439.56;10223715;23;19925;-75
2022/12/13 11:40:14;;;;;;;;;;;;;;;-1.13;67.07;98434.47;10241776;23;19966;-75
2022/12/13 11:44:20;;;;;;;;;;;;;;;-1.16;67.38;98435.25;10201234;23;19924;-75
2022/12/13 11:48:43;;;;;;;;;;;;;;;-1.18;67.08;98431.81;10213733;23;19924;-75
2022/12/13 11:52:56;;;;;;;;;;;;;;;-1.16;67.05;98434.38;10207231;23;19986;-75
2022/12/13 11:57:06;;;;;;;;;;;;;;;-1.12;67.33;98424.31;10178798;23;19924;-76
2022/12/13 12:01:16;;;;;;;;;;;;;;;-1.05;67.12;98420.25;10190203;23;19920;-76
2022/12/13 12:05:21;;;;;;;;;;;;;;;-0.97;67.89;98419.59;10229027;23;19930;-76
2022/12/13 12:09:26;;;;;;;;;;;;;;;-0.87;67.74;98415.63;10197982;23;19982;-76
2022/12/13 12:13:32;;;;;;;;;;;;;;;-0.84;66.96;98413.13;10199530;23;20011;-76
2022/12/13 12:17:34;;;;;;;;;;;;;;;-0.83;65.78;98394.47;10221060;23;20289;-76
2022/12/13 12:21:49;;;;;;;;;;;;;;;-0.77;65.93;98386.09;10199214;23;19924;-76
2022/12/13 12:26:32;;;;;;;;;;;;;;;-0.73;65.46;98381.13;10199322;23;19985;-76
2022/12/13 12:30:42;;;;;;;;;;;;;;;-0.66;65.52;98382.16;10189786;23;19924;-76
2022/12/13 12:34:44;;;;;;;;;;;;;;;-0.63;65.37;98384.75;10225964;23;19925;-77
2022/12/13 12:39:05;;;;;;;;;;;;;;;-0.58;65.26;98392.50;10200275;23;19923;-77
2022/12/13 12:43:19;;;;;;;;;;;;;;;-0.54;65.13;98390.06;10227753;23;19941;-76
2022/12/13 12:47:39;;;;;;;;;;;;;;;-0.50;64.93;98384.22;10220712;23;20255;-76
2022/12/13 12:52:14;;;;;;;;;;;;;;;-0.43;64.46;98380.09;10229015;23;20569;-76
2022/12/13 12:56:16;;;;;;;;;;;;;;;-0.36;64.24;98376.84;10229860;23;19928;-76
2022/12/13 13:00:19;;;;;;;;;;;;;;;-0.29;63.83;98373.63;10230530;23;19924;-76
2022/12/13 13:04:41;;;;;;;;;;;;;;;-0.21;63.81;98376.34;10201552;23;19931;-76
2022/12/13 13:18:46;;;;;;;;;;;;;;;-0.01;62.96;98362.31;10232924;23;19956;-76
2022/12/13 13:22:48;;;;;;;;;;;;;;;0.06;63.40;98366.72;10178891;23;19928;-76
2022/12/13 13:27:09;;;;;;;;;;;;;;;0.12;62.95;98371.09;10202996;23;19924;-76
2022/12/13 13:31:11;;;;;;;;;;;;;;;0.16;62.86;98377.97;10221998;23;19978;-76
2022/12/13 13:35:36;;;;;;;;;;;;;;;0.14;61.36;98377.94;10203153;23;19935;-76
2022/12/13 13:39:53;;;;;;;;;;;;;;;0.18;62.15;98366.09;10170829;23;19968;-75
2022/12/13 13:43:54;;;;;;;;;;;;;;;0.18;61.74;98361.00;10199148;23;19924;-74
2022/12/13 13:48:11;;;;;;;;;;;;;;;0.13;61.09;98349.84;10215900;23;20442;-74
2022/12/13 13:52:20;;;;;;;;;;;;;;;0.11;61.48;98348.94;10175713;23;19935;-76
2022/12/13 13:56:39;;;;;;;;;;;;;;;0.06;61.29;98348.88;10201980;23;20284;-76
2022/12/13 14:00:52;;;;;;;;;;;;;;;0.10;61.99;98339.56;10192581;23;19963;-76
2022/12/13 14:05:13;;;;;;;;;;;;;;;0.09;61.97;98341.25;10201060;23;19924;-76
2022/12/13 14:09:32;;;;;;;;;;;;;;;0.03;61.86;98340.28;10227807;23;20208;-76
2022/12/13 14:13:41;;;;;;;;;;;;;;;-0.06;61.25;98333.31;10228012;23;19924;-77
2022/12/13 14:18:05;;;;;;;;;;;;;;;-0.13;61.75;98329.78;10218834;23;19939;-76
2022/12/13 14:22:39;;;;;;;;;;;;;;;-0.23;61.60;98321.88;10172147;23;19987;-77
2022/12/13 14:27:16;;;;;;;;;;;;;;;-0.33;61.85;98306.41;10203957;23;19927;-76
2022/12/13 14:31:38;;;;;;;;;;;;;;;-0.38;62.02;98314.75;10194039;23;19924;-75
2022/12/13 14:35:48;;;;;;;;;;;;;;;-0.43;62.36;98312.13;10195793;23;19928;-76
2022/12/13 14:40:20;;;;;;;;;;;;;;;-0.49;62.10;98304.34;10172004;23;19925;-76
2022/12/13 14:44:25;;;;;;;;;;;;;;;-0.53;62.51;98289.84;10223153;23;19991;-76
2022/12/13 14:48:32;;;;;;;;;;;;;;;-0.59;62.15;98278.63;10190222;23;19975;-75
2022/12/13 14:52:38;;;;;;;;;;;;;;;-0.68;62.76;98280.16;10199354;23;19971;-76
2022/12/13 14:56:54;;;;;;;;;;;;;;;-0.70;62.42;98286.06;10175358;23;19963;-76
2022/12/13 15:00:56;;;;;;;;;;;;;;;-0.73;62.38;98278.31;10165153;23;20225;-76
2022/12/13 15:05:04;;;;;;;;;;;;;;;-0.75;62.77;98287.63;10198375;23;19963;-76
2022/12/13 15:09:13;;;;;;;;;;;;;;;-0.81;62.74;98284.94;10222836;23;20320;-76
2022/12/13 15:13:24;;;;;;;;;;;;;;;-0.87;62.42;98275.47;10222302;23;20363;-76
2022/12/13 15:17:35;;;;;;;;;;;;;;;-0.93;63.28;98280.41;10192403;23;20308;-76
2022/12/13 15:21:37;;;;;;;;;;;;;;;-1.00;62.51;98284.53;10172626;23;19924;-76
2022/12/13 15:25:39;;;;;;;;;;;;;;;-1.05;62.79;98283.56;10198099;23;19932;-76
2022/12/13 15:29:40;;;;;;;;;;;;;;;-1.08;63.14;98277.50;10172201;23;19986;-76
2022/12/13 15:33:42;;;;;;;;;;;;;;;-1.12;63.37;98285.91;10189346;23;19921;-76
2022/12/13 15:37:49;;;;;;;;;;;;;;;-1.16;63.69;98291.75;10221045;23;19931;-76
2022/12/13 15:41:53;;;;;;;;;;;;;;;-1.19;64.48;98289.16;10197024;23;19924;-77
2022/12/13 15:45:54;;;;;;;;;;;;;;;-1.24;64.77;98287.38;10165174;23;19991;-76
2022/12/13 15:49:58;;;;;;;;;;;;;;;-1.28;64.83;98284.69;10222624;23;20285;-77
2022/12/13 15:54:21;;;;;;;;;;;;;;;-1.33;65.12;98286.25;10201904;23;19998;-76
2022/12/13 15:58:33;;;;;;;;;;;;;;;-1.38;64.74;98296.34;10227570;23;19995;-77
2022/12/13 16:02:35;;;;;;;;;;;;;;;-1.41;64.98;98296.28;10199279;23;20577;-76
2022/12/13 16:06:36;;;;;;;;;;;;;;;-1.46;65.15;98297.81;10204442;23;20668;-76
2022/12/13 16:10:38;;;;;;;;;;;;;;;-1.52;65.38;98301.06;10204685;23;19924;-76
2022/12/13 16:14:41;;;;;;;;;;;;;;;-1.56;64.59;98301.84;10202813;23;20436;-74
2022/12/13 16:18:51;;;;;;;;;;;;;;;-1.64;64.58;98289.72;10194939;23;19932;-74
2022/12/13 16:22:53;;;;;;;;;;;;;;;-1.66;65.14;98291.38;10200593;23;19924;-74
2022/12/13 16:27:00;;;;;;;;;;;;;;;-1.72;65.82;98293.75;10177392;23;19943;-74
2022/12/13 16:31:11;;;;;;;;;;;;;;;-1.76;66.15;98286.88;10195221;23;20666;-74
2022/12/13 16:35:13;;;;;;;;;;;;;;;-1.81;65.71;98296.91;10226878;23;20379;-74
2022/12/13 16:39:14;;;;;;;;;;;;;;;-1.85;65.39;98287.47;10226637;23;19924;-74
2022/12/13 16:43:17;;;;;;;;;;;;;;;-1.86;66.87;98279.00;10199724;23;20318;-75
2022/12/13 16:47:18;;;;;;;;;;;;;;;-1.85;66.45;98274.75;10193581;23;19948;-74
2022/12/13 16:51:36;;;;;;;;;;;;;;;-1.87;66.96;98261.13;10228411;23;19924;-74
2022/12/13 16:55:41;;;;;;;;;;;;;;;-1.88;67.09;98256.88;10203964;23;20354;-76
2022/12/13 16:59:43;;;;;;;;;;;;;;;-1.88;67.28;98259.41;10204054;23;19974;-76
2022/12/13 17:03:44;;;;;;;;;;;;;;;-1.91;66.19;98241.53;10223765;23;20307;-76
2022/12/13 17:07:46;;;;;;;;;;;;;;;-1.91;66.66;98244.94;10227925;23;19955;-76
2022/12/13 17:11:47;;;;;;;;;;;;;;;-1.93;67.18;98231.34;10203944;23;19924;-75
2022/12/13 17:15:49;;;;;;;;;;;;;;;-1.94;67.42;98246.56;10220793;23;20120;-76
2022/12/13 17:20:00;;;;;;;;;;;;;;;-1.98;66.81;98248.13;10202911;23;19924;-75
2022/12/13 17:24:06;;;;;;;;;;;;;;;-1.99;66.61;98246.41;10226841;23;20258;-76
2022/12/13 17:28:08;;;;;;;;;;;;;;;-2.00;67.06;98233.66;10228323;23;20315;-75
2022/12/13 17:32:10;;;;;;;;;;;;;;;-1.99;67.45;98220.13;10197820;23;19924;-76
2022/12/13 17:36:13;;;;;;;;;;;;;;;-1.99;68.16;98210.81;10202311;23;20003;-76
2022/12/13 17:40:15;;;;;;;;;;;;;;;-1.98;68.38;98216.75;10202665;23;19951;-76
2022/12/13 17:44:17;;;;;;;;;;;;;;;-2.00;67.75;98206.53;10227758;23;19928;-76
2022/12/13 17:48:18;;;;;;;;;;;;;;;-2.00;68.48;98193.81;10197324;23;19920;-76
2022/12/13 17:52:19;;;;;;;;;;;;;;;-2.00;68.16;98205.69;10229092;23;19955;-76
2022/12/13 17:56:21;;;;;;;;;;;;;;;-2.02;68.74;98202.25;10178804;23;20010;-76
2022/12/13 18:00:22;;;;;;;;;;;;;;;-2.02;68.37;98198.00;10195608;23;20503;-76
2022/12/13 18:04:24;;;;;;;;;;;;;;;-2.06;68.86;98198.75;10228805;23;20029;-75
2022/12/13 18:08:25;;;;;;;;;;;;;;;-2.06;69.19;98196.22;10201156;23;19930;-75
2022/12/13 18:12:27;;;;;;;;;;;;;;;-2.05;69.07;98194.53;10177902;23;19946;-75
2022/12/13 18:16:28;;;;;;;;;;;;;;;-2.08;68.33;98185.16;10177501;23;20252;-75
2022/12/13 18:20:37;;;;;;;;;;;;;;;-2.11;69.58;98194.41;10227701;23;19959;-75
2022/12/13 18:24:38;;;;;;;;;;;;;;;-2.11;69.41;98205.44;10177921;23;19924;-75
2022/12/13 18:28:45;;;;;;;;;;;;;;;-2.13;70.14;98207.94;10179096;23;19920;-75
2022/12/13 18:32:46;;;;;;;;;;;;;;;-2.12;69.91;98231.66;10223208;23;20213;-76
2022/12/13 18:36:48;;;;;;;;;;;;;;;-2.11;69.22;98245.25;10203929;23;20542;-76
2022/12/13 18:40:49;;;;;;;;;;;;;;;-2.12;69.29;98239.31;10202956;23;20375;-76
2022/12/13 18:44:50;;;;;;;;;;;;;;;-2.09;70.18;98203.78;10203117;23;19924;-76
2022/12/13 18:48:55;;;;;;;;;;;;;;;-2.11;69.51;98185.09;10199342;23;20353;-76
2022/12/13 18:52:58;;;;;;;;;;;;;;;-2.13;70.76;98201.97;10202196;23;19924;-76
2022/12/13 18:57:01;;;;;;;;;;;;;;;-2.15;70.77;98189.22;10202514;23;19931;-75
2022/12/13 19:01:03;;;;;;;;;;;;;;;-2.16;70.06;98191.72;10194842;23;19952;-75
2022/12/13 19:05:05;;;;;;;;;;;;;;;-2.15;70.98;98180.75;10179005;23;19931;-75
2022/12/13 19:09:07;;;;;;;;;;;;;;;-2.15;70.88;98175.66;10203731;23;20307;-75
2022/12/13 19:13:08;;;;;;;;;;;;;;;-2.15;70.28;98175.66;10202793;23;20390;-74
2022/12/13 19:17:11;;;;;;;;;;;;;;;-2.13;71.07;98191.81;10223669;23;19931;-74
2022/12/13 19:21:13;;;;;;;;;;;;;;;-2.13;70.60;98194.34;10202529;23;20193;-74
2022/12/13 19:25:16;;;;;;;;;;;;;;;-2.14;71.40;98157.91;10228068;23;20300;-76
2022/12/13 19:29:17;;;;;;;;;;;;;;;-2.13;71.47;98168.94;10225955;23;19974;-75
2022/12/13 19:33:19;;;;;;;;;;;;;;;-2.11;70.89;98166.41;10222912;23;19924;-75
2022/12/13 19:37:20;;;;;;;;;;;;;;;-2.10;71.15;98160.50;10226846;23;19951;-76
2022/12/13 19:41:22;;;;;;;;;;;;;;;-2.13;71.07;98151.13;10200592;23;19924;-75
2022/12/13 19:45:24;;;;;;;;;;;;;;;-2.12;71.81;98145.22;10172354;23;19935;-76
2022/12/13 19:49:26;;;;;;;;;;;;;;;-2.13;70.74;98139.28;10202234;23;20007;-76
2022/12/13 19:53:27;;;;;;;;;;;;;;;-2.10;71.78;98141.03;10203396;23;19963;-76
2022/12/13 19:57:33;;;;;;;;;;;;;;;-2.09;71.92;98152.06;10227598;23;19924;-76
2022/12/13 20:01:34;;;;;;;;;;;;;;;-2.07;71.39;98138.56;10202683;23;19924;-76
2022/12/13 20:05:37;;;;;;;;;;;;;;;-2.07;71.42;98146.19;10176949;23;19935;-77
2022/12/13 20:09:38;;;;;;;;;;;;;;;-2.07;70.88;98133.47;10202359;23;19963;-75
2022/12/13 20:13:40;;;;;;;;;;;;;;;-2.09;71.51;98117.31;10175647;23;19924;-76
2022/12/13 20:17:41;;;;;;;;;;;;;;;-2.08;70.67;98110.56;10192734;23;20583;-75
2022/12/13 20:21:44;;;;;;;;;;;;;;;-2.06;71.15;98104.69;10200086;23;20367;-75
2022/12/13 20:25:46;;;;;;;;;;;;;;;-2.07;70.88;98100.41;10201130;23;19959;-76
2022/12/13 20:29:49;;;;;;;;;;;;;;;-2.07;70.60;98086.84;10199658;23;20291;-75
2022/12/13 20:33:57;;;;;;;;;;;;;;;-2.08;70.39;98093.63;10220610;23;19934;-75
2022/12/13 20:37:58;;;;;;;;;;;;;;;-2.09;71.69;98089.34;10202016;23;19948;-75
2022/12/13 20:42:00;;;;;;;;;;;;;;;-2.10;71.59;98077.47;10179976;23;20035;-75
2022/12/13 20:46:09;;;;;;;;;;;;;;;-2.11;71.81;98070.66;10200075;23;19925;-76
2022/12/13 20:50:11;;;;;;;;;;;;;;;-2.12;71.71;98079.13;10177040;23;20035;-77
2022/12/13 20:54:12;;;;;;;;;;;;;;;-2.10;71.07;98077.47;10229856;23;19932;-75
2022/12/13 20:58:13;;;;;;;;;;;;;;;-2.10;70.35;98086.78;10179530;23;20473;-75
2022/12/13 21:02:15;;;;;;;;;;;;;;;-2.09;71.55;98089.34;10199504;23;19924;-76
2022/12/13 21:06:16;;;;;;;;;;;;;;;-2.09;71.22;98078.31;10205335;23;20008;-75
2022/12/13 21:10:18;;;;;;;;;;;;;;;-2.10;70.29;98062.22;10204450;23;19960;-76
2022/12/13 21:14:25;;;;;;;;;;;;;;;-2.08;70.46;98067.34;10231239;23;20256;-76
2022/12/13 21:18:26;;;;;;;;;;;;;;;-2.09;71.27;98057.97;10213818;23;19924;-76
2022/12/13 21:22:28;;;;;;;;;;;;;;;-2.09;70.19;98051.22;10229719;23;20232;-76